sensor_id;sensor_type;location;lat;lon;timestamp;temperature;humidity
61979;DHT22;47938;48.176;16.414;2023-02-17T00:03:46;1.90;99.90
61979;DHT22;47938;48.176;16.414;2023-02-17T00:06:11;2.00;99.90
61979;DHT22;47938;48.176;16.414;2023-02-17T00:08:37;1.90;99.90
61979;DHT22;47938;48.176;16.414;2023-02-17T00:11:03;2.00;99.90
61979;DHT22;47938;48.176;16.414;2023-02-17T00:13:29;2.00;99.90
61979;DHT22;47938;48.176;16.414;2023-02-17T00:15:54;2.00;99.90
61979;DHT22;47938;48.176;16.414;2023-02-17T00:18:20;2.00;99.90
61979;DHT22;47938;48.176;16.414;2023-02-17T00:20:46;2.00;99.90
61979;DHT22;47938;48.176;16.414;2023-02-17T00:23:11;2.00;99.90
61979;DHT22;47938;48.176;16.414;2023-02-17T00:25:38;2.00;99.90
61979;DHT22;47938;48.176;16.414;2023-02-17T00:28:03;2.00;99.90
61979;DHT22;47938;48.176;16.414;2023-02-17T00:30:29;2.00;99.90
61979;DHT22;47938;48.176;16.414;2023-02-17T00:32:55;2.00;99.90
61979;DHT22;47938;48.176;16.414;2023-02-17T00:35:20;1.90;99.90
61979;DHT22;47938;48.176;16.414;2023-02-17T00:37:46;2.00;99.90
61979;DHT22;47938;48.176;16.414;2023-02-17T00:40:12;2.00;99.90
61979;DHT22;47938;48.176;16.414;2023-02-17T00:42:38;2.00;99.90
61979;DHT22;47938;48.176;16.414;2023-02-17T00:45:04;2.00;99.90
61979;DHT22;47938;48.176;16.414;2023-02-17T00:47:30;2.00;99.90
61979;DHT22;47938;48.176;16.414;2023-02-17T00:49:56;2.00;99.90
61979;DHT22;47938;48.176;16.414;2023-02-17T00:52:21;2.00;99.90
61979;DHT22;47938;48.176;16.414;2023-02-17T00:54:47;2.10;99.90
61979;DHT22;47938;48.176;16.414;2023-02-17T00:57:13;2.10;99.90
61979;DHT22;47938;48.176;16.414;2023-02-17T00:59:38;2.10;99.90
61979;DHT22;47938;48.176;16.414;2023-02-17T01:02:04;2.20;99.90
61979;DHT22;47938;48.176;16.414;2023-02-17T01:04:29;2.10;99.90
61979;DHT22;47938;48.176;16.414;2023-02-17T01:06:55;2.10;99.90
61979;DHT22;47938;48.176;16.414;2023-02-17T01:09:20;2.10;99.90
61979;DHT22;47938;48.176;16.414;2023-02-17T01:11:46;2.10;99.90
61979;DHT22;47938;48.176;16.414;2023-02-17T01:14:12;2.10;99.90
61979;DHT22;47938;48.176;16.414;2023-02-17T01:16:40;2.10;99.90
61979;DHT22;47938;48.176;16.414;2023-02-17T01:19:13;2.10;99.90
61979;DHT22;47938;48.176;16.414;2023-02-17T01:21:39;2.10;99.90
61979;DHT22;47938;48.176;16.414;2023-02-17T01:24:07;2.00;99.90
61979;DHT22;47938;48.176;16.414;2023-02-17T01:26:34;2.00;99.90
61979;DHT22;47938;48.176;16.414;2023-02-17T01:29:00;2.00;99.90
61979;DHT22;47938;48.176;16.414;2023-02-17T01:31:27;2.00;99.90
61979;DHT22;47938;48.176;16.414;2023-02-17T01:33:54;2.10;99.90
61979;DHT22;47938;48.176;16.414;2023-02-17T01:36:20;2.00;99.90
61979;DHT22;47938;48.176;16.414;2023-02-17T01:38:46;2.00;99.90
61979;DHT22;47938;48.176;16.414;2023-02-17T01:41:12;1.90;99.90
61979;DHT22;47938;48.176;16.414;2023-02-17T01:43:39;1.90;99.90
61979;DHT22;47938;48.176;16.414;2023-02-17T01:46:06;1.80;99.90
61979;DHT22;47938;48.176;16.414;2023-02-17T01:48:48;1.80;99.90
61979;DHT22;47938;48.176;16.414;2023-02-17T01:51:20;1.80;99.90
61979;DHT22;47938;48.176;16.414;2023-02-17T01:53:49;1.70;99.90
61979;DHT22;47938;48.176;16.414;2023-02-17T01:56:17;1.60;99.90
61979;DHT22;47938;48.176;16.414;2023-02-17T01:58:51;1.40;99.90
61979;DHT22;47938;48.176;16.414;2023-02-17T02:01:18;1.30;99.90
61979;DHT22;47938;48.176;16.414;2023-02-17T02:03:44;1.30;99.90
61979;DHT22;47938;48.176;16.414;2023-02-17T02:06:13;1.40;99.90
61979;DHT22;47938;48.176;16.414;2023-02-17T02:08:50;1.40;99.90
61979;DHT22;47938;48.176;16.414;2023-02-17T02:11:17;1.40;99.90
61979;DHT22;47938;48.176;16.414;2023-02-17T02:13:43;1.40;99.90
61979;DHT22;47938;48.176;16.414;2023-02-17T02:16:24;1.50;99.90
61979;DHT22;47938;48.176;16.414;2023-02-17T02:19:13;1.50;99.90
61979;DHT22;47938;48.176;16.414;2023-02-17T02:24:42;1.60;99.90
61979;DHT22;47938;48.176;16.414;2023-02-17T02:39:10;1.30;99.90
61979;DHT22;47938;48.176;16.414;2023-02-17T02:41:40;1.30;99.90
61979;DHT22;47938;48.176;16.414;2023-02-17T02:44:09;1.40;99.90
61979;DHT22;47938;48.176;16.414;2023-02-17T02:46:35;1.50;99.90
61979;DHT22;47938;48.176;16.414;2023-02-17T02:49:01;1.60;99.90
61979;DHT22;47938;48.176;16.414;2023-02-17T02:51:54;1.60;99.90
61979;DHT22;47938;48.176;16.414;2023-02-17T03:05:13;1.80;99.90
61979;DHT22;47938;48.176;16.414;2023-02-17T03:10:08;1.80;99.90
61979;DHT22;47938;48.176;16.414;2023-02-17T03:12:36;1.80;99.90
61979;DHT22;47938;48.176;16.414;2023-02-17T03:15:08;1.80;99.90
61979;DHT22;47938;48.176;16.414;2023-02-17T03:17:36;1.90;99.90
61979;DHT22;47938;48.176;16.414;2023-02-17T03:20:03;2.00;99.90
61979;DHT22;47938;48.176;16.414;2023-02-17T03:22:34;2.00;99.90
61979;DHT22;47938;48.176;16.414;2023-02-17T03:25:01;2.00;99.90
61979;DHT22;47938;48.176;16.414;2023-02-17T03:27:27;2.10;99.90
61979;DHT22;47938;48.176;16.414;2023-02-17T03:29:53;2.10;99.90
61979;DHT22;47938;48.176;16.414;2023-02-17T03:32:19;2.20;99.90
61979;DHT22;47938;48.176;16.414;2023-02-17T03:34:45;2.30;99.90
61979;DHT22;47938;48.176;16.414;2023-02-17T03:37:10;2.40;99.90
61979;DHT22;47938;48.176;16.414;2023-02-17T03:39:36;2.40;99.90
61979;DHT22;47938;48.176;16.414;2023-02-17T03:42:02;2.40;99.90
61979;DHT22;47938;48.176;16.414;2023-02-17T03:44:28;2.50;99.90
61979;DHT22;47938;48.176;16.414;2023-02-17T03:46:53;2.60;99.90
61979;DHT22;47938;48.176;16.414;2023-02-17T03:49:19;2.60;99.90
61979;DHT22;47938;48.176;16.414;2023-02-17T03:51:44;2.70;99.90
61979;DHT22;47938;48.176;16.414;2023-02-17T03:54:10;2.70;99.90
61979;DHT22;47938;48.176;16.414;2023-02-17T03:56:36;2.80;99.90
61979;DHT22;47938;48.176;16.414;2023-02-17T03:59:02;2.80;99.90
61979;DHT22;47938;48.176;16.414;2023-02-17T04:01:28;2.80;99.90
61979;DHT22;47938;48.176;16.414;2023-02-17T04:03:53;2.90;99.90
61979;DHT22;47938;48.176;16.414;2023-02-17T04:06:19;2.90;99.90
61979;DHT22;47938;48.176;16.414;2023-02-17T04:08:45;2.90;99.90
61979;DHT22;47938;48.176;16.414;2023-02-17T04:11:10;3.00;99.90
61979;DHT22;47938;48.176;16.414;2023-02-17T04:13:36;3.00;99.90
61979;DHT22;47938;48.176;16.414;2023-02-17T04:16:03;3.00;99.90
61979;DHT22;47938;48.176;16.414;2023-02-17T04:18:29;3.00;99.90
61979;DHT22;47938;48.176;16.414;2023-02-17T04:20:56;3.00;99.90
61979;DHT22;47938;48.176;16.414;2023-02-17T04:23:21;3.00;99.90
61979;DHT22;47938;48.176;16.414;2023-02-17T04:25:48;3.10;99.90
61979;DHT22;47938;48.176;16.414;2023-02-17T04:28:14;3.00;99.90
61979;DHT22;47938;48.176;16.414;2023-02-17T04:30:48;3.10;99.90
61979;DHT22;47938;48.176;16.414;2023-02-17T04:33:14;3.10;99.90
61979;DHT22;47938;48.176;16.414;2023-02-17T04:35:40;3.10;99.90
61979;DHT22;47938;48.176;16.414;2023-02-17T04:38:06;3.20;99.90
61979;DHT22;47938;48.176;16.414;2023-02-17T04:40:32;3.00;99.90
61979;DHT22;47938;48.176;16.414;2023-02-17T04:42:58;2.90;99.90
61979;DHT22;47938;48.176;16.414;2023-02-17T04:45:24;2.80;99.90
61979;DHT22;47938;48.176;16.414;2023-02-17T04:47:49;2.90;99.90
61979;DHT22;47938;48.176;16.414;2023-02-17T04:50:15;2.80;99.90
61979;DHT22;47938;48.176;16.414;2023-02-17T04:52:40;2.70;99.90
61979;DHT22;47938;48.176;16.414;2023-02-17T04:55:07;2.70;99.90
61979;DHT22;47938;48.176;16.414;2023-02-17T04:57:33;2.80;99.90
61979;DHT22;47938;48.176;16.414;2023-02-17T04:59:59;2.80;99.90
61979;DHT22;47938;48.176;16.414;2023-02-17T05:02:24;2.90;99.90
61979;DHT22;47938;48.176;16.414;2023-02-17T05:04:50;2.90;99.90
61979;DHT22;47938;48.176;16.414;2023-02-17T05:07:15;2.90;99.90
61979;DHT22;47938;48.176;16.414;2023-02-17T05:09:41;2.90;99.90
61979;DHT22;47938;48.176;16.414;2023-02-17T05:12:06;3.00;99.90
61979;DHT22;47938;48.176;16.414;2023-02-17T05:14:32;3.10;99.90
61979;DHT22;47938;48.176;16.414;2023-02-17T05:16:58;3.10;99.90
61979;DHT22;47938;48.176;16.414;2023-02-17T05:19:23;3.20;99.90
61979;DHT22;47938;48.176;16.414;2023-02-17T05:21:49;3.20;99.90
61979;DHT22;47938;48.176;16.414;2023-02-17T05:24:14;3.20;99.90
61979;DHT22;47938;48.176;16.414;2023-02-17T05:26:40;3.30;99.90
61979;DHT22;47938;48.176;16.414;2023-02-17T05:29:06;3.30;99.90
61979;DHT22;47938;48.176;16.414;2023-02-17T05:31:31;3.30;99.90
61979;DHT22;47938;48.176;16.414;2023-02-17T05:33:57;3.40;99.90
61979;DHT22;47938;48.176;16.414;2023-02-17T05:36:23;3.40;99.90
61979;DHT22;47938;48.176;16.414;2023-02-17T05:38:48;3.40;99.90
61979;DHT22;47938;48.176;16.414;2023-02-17T05:41:17;3.40;99.90
61979;DHT22;47938;48.176;16.414;2023-02-17T05:43:44;3.40;99.90
61979;DHT22;47938;48.176;16.414;2023-02-17T05:46:09;3.30;99.90
61979;DHT22;47938;48.176;16.414;2023-02-17T05:48:35;3.20;99.90
61979;DHT22;47938;48.176;16.414;2023-02-17T05:51:01;3.20;99.90
61979;DHT22;47938;48.176;16.414;2023-02-17T05:53:26;3.20;99.90
61979;DHT22;47938;48.176;16.414;2023-02-17T05:55:52;3.10;99.90
61979;DHT22;47938;48.176;16.414;2023-02-17T05:58:17;3.10;99.90
61979;DHT22;47938;48.176;16.414;2023-02-17T06:00:43;3.10;99.90
61979;DHT22;47938;48.176;16.414;2023-02-17T06:03:09;3.20;99.90
61979;DHT22;47938;48.176;16.414;2023-02-17T06:05:34;3.30;99.90
61979;DHT22;47938;48.176;16.414;2023-02-17T06:08:00;3.40;99.90
61979;DHT22;47938;48.176;16.414;2023-02-17T06:10:26;3.40;99.90
61979;DHT22;47938;48.176;16.414;2023-02-17T06:12:51;3.40;99.90
61979;DHT22;47938;48.176;16.414;2023-02-17T06:15:17;3.50;99.90
61979;DHT22;47938;48.176;16.414;2023-02-17T06:17:42;3.50;99.90
61979;DHT22;47938;48.176;16.414;2023-02-17T06:20:09;3.60;99.90
61979;DHT22;47938;48.176;16.414;2023-02-17T06:22:35;3.60;99.90
61979;DHT22;47938;48.176;16.414;2023-02-17T06:25:00;3.70;99.90
61979;DHT22;47938;48.176;16.414;2023-02-17T06:27:26;3.80;99.90
61979;DHT22;47938;48.176;16.414;2023-02-17T06:29:52;3.90;99.90
61979;DHT22;47938;48.176;16.414;2023-02-17T06:32:17;4.10;99.90
61979;DHT22;47938;48.176;16.414;2023-02-17T06:34:43;4.30;99.90
61979;DHT22;47938;48.176;16.414;2023-02-17T06:37:08;4.70;99.90
61979;DHT22;47938;48.176;16.414;2023-02-17T06:39:34;5.00;96.20
61979;DHT22;47938;48.176;16.414;2023-02-17T06:42:00;5.30;92.60
61979;DHT22;47938;48.176;16.414;2023-02-17T06:44:26;5.70;89.70
61979;DHT22;47938;48.176;16.414;2023-02-17T06:46:51;6.00;85.30
61979;DHT22;47938;48.176;16.414;2023-02-17T06:49:17;6.30;80.90
61979;DHT22;47938;48.176;16.414;2023-02-17T06:51:43;6.50;78.10
61979;DHT22;47938;48.176;16.414;2023-02-17T06:54:08;6.60;76.90
61979;DHT22;47938;48.176;16.414;2023-02-17T06:56:34;6.80;75.60
61979;DHT22;47938;48.176;16.414;2023-02-17T06:59:00;7.00;73.80
61979;DHT22;47938;48.176;16.414;2023-02-17T07:01:26;7.20;72.10
61979;DHT22;47938;48.176;16.414;2023-02-17T07:03:52;7.30;71.20
61979;DHT22;47938;48.176;16.414;2023-02-17T07:06:18;7.50;70.30
61979;DHT22;47938;48.176;16.414;2023-02-17T07:08:44;7.70;69.40
61979;DHT22;47938;48.176;16.414;2023-02-17T07:11:11;7.80;68.90
61979;DHT22;47938;48.176;16.414;2023-02-17T07:13:37;7.90;68.80
61979;DHT22;47938;48.176;16.414;2023-02-17T07:16:03;8.10;68.00
61979;DHT22;47938;48.176;16.414;2023-02-17T07:18:29;8.10;67.90
61979;DHT22;47938;48.176;16.414;2023-02-17T07:20:55;8.10;68.70
61979;DHT22;47938;48.176;16.414;2023-02-17T07:23:20;8.10;67.80
61979;DHT22;47938;48.176;16.414;2023-02-17T07:25:46;8.10;67.60
61979;DHT22;47938;48.176;16.414;2023-02-17T07:28:12;8.20;67.70
61979;DHT22;47938;48.176;16.414;2023-02-17T07:30:39;8.40;66.10
61979;DHT22;47938;48.176;16.414;2023-02-17T07:33:06;8.50;65.20
61979;DHT22;47938;48.176;16.414;2023-02-17T07:35:32;8.70;64.20
61979;DHT22;47938;48.176;16.414;2023-02-17T07:37:58;9.00;62.90
61979;DHT22;47938;48.176;16.414;2023-02-17T07:40:24;9.30;61.70
61979;DHT22;47938;48.176;16.414;2023-02-17T07:42:50;9.40;60.50
61979;DHT22;47938;48.176;16.414;2023-02-17T07:45:16;9.50;59.90
61979;DHT22;47938;48.176;16.414;2023-02-17T07:47:41;9.60;59.50
61979;DHT22;47938;48.176;16.414;2023-02-17T07:50:07;9.60;59.10
61979;DHT22;47938;48.176;16.414;2023-02-17T07:52:33;9.60;58.90
61979;DHT22;47938;48.176;16.414;2023-02-17T07:54:59;9.60;59.20
61979;DHT22;47938;48.176;16.414;2023-02-17T07:57:24;9.60;59.40
61979;DHT22;47938;48.176;16.414;2023-02-17T07:59:50;9.60;58.50
61979;DHT22;47938;48.176;16.414;2023-02-17T08:02:16;9.70;58.70
61979;DHT22;47938;48.176;16.414;2023-02-17T08:04:41;9.80;58.30
61979;DHT22;47938;48.176;16.414;2023-02-17T08:07:07;9.80;58.50
61979;DHT22;47938;48.176;16.414;2023-02-17T08:09:33;9.80;57.70
61979;DHT22;47938;48.176;16.414;2023-02-17T08:11:59;9.80;57.60
61979;DHT22;47938;48.176;16.414;2023-02-17T08:14:26;9.60;57.50
61979;DHT22;47938;48.176;16.414;2023-02-17T08:16:52;9.50;58.20
61979;DHT22;47938;48.176;16.414;2023-02-17T08:19:18;9.50;57.90
61979;DHT22;47938;48.176;16.414;2023-02-17T08:21:44;9.50;57.30
61979;DHT22;47938;48.176;16.414;2023-02-17T08:24:10;9.50;57.40
61979;DHT22;47938;48.176;16.414;2023-02-17T08:26:36;9.60;57.50
61979;DHT22;47938;48.176;16.414;2023-02-17T08:29:01;9.60;57.20
61979;DHT22;47938;48.176;16.414;2023-02-17T08:31:30;9.50;57.40
61979;DHT22;47938;48.176;16.414;2023-02-17T08:33:56;9.60;58.10
61979;DHT22;47938;48.176;16.414;2023-02-17T08:36:23;9.50;57.80
61979;DHT22;47938;48.176;16.414;2023-02-17T08:38:49;9.60;58.20
61979;DHT22;47938;48.176;16.414;2023-02-17T08:41:19;9.70;57.80
61979;DHT22;47938;48.176;16.414;2023-02-17T08:43:45;9.70;58.30
61979;DHT22;47938;48.176;16.414;2023-02-17T08:46:13;9.90;58.30
61979;DHT22;47938;48.176;16.414;2023-02-17T08:48:40;10.10;58.60
61979;DHT22;47938;48.176;16.414;2023-02-17T08:51:05;10.30;57.80
61979;DHT22;47938;48.176;16.414;2023-02-17T08:53:32;10.40;58.00
61979;DHT22;47938;48.176;16.414;2023-02-17T08:55:58;10.50;57.70
61979;DHT22;47938;48.176;16.414;2023-02-17T08:58:23;10.60;58.50
61979;DHT22;47938;48.176;16.414;2023-02-17T09:00:49;10.50;58.10
61979;DHT22;47938;48.176;16.414;2023-02-17T09:03:15;10.30;58.40
61979;DHT22;47938;48.176;16.414;2023-02-17T09:05:41;10.20;60.10
61979;DHT22;47938;48.176;16.414;2023-02-17T09:08:07;10.40;61.90
61979;DHT22;47938;48.176;16.414;2023-02-17T09:10:32;10.60;62.30
61979;DHT22;47938;48.176;16.414;2023-02-17T09:12:58;10.80;62.30
61979;DHT22;47938;48.176;16.414;2023-02-17T09:15:24;11.00;62.60
61979;DHT22;47938;48.176;16.414;2023-02-17T09:17:49;11.20;61.90
61979;DHT22;47938;48.176;16.414;2023-02-17T09:20:15;11.40;62.10
61979;DHT22;47938;48.176;16.414;2023-02-17T09:22:41;11.50;62.60
61979;DHT22;47938;48.176;16.414;2023-02-17T09:25:07;11.60;63.00
61979;DHT22;47938;48.176;16.414;2023-02-17T09:27:32;11.60;63.00
61979;DHT22;47938;48.176;16.414;2023-02-17T09:29:58;11.70;64.30
61979;DHT22;47938;48.176;16.414;2023-02-17T09:32:23;11.70;65.00
61979;DHT22;47938;48.176;16.414;2023-02-17T09:34:49;11.70;66.80
61979;DHT22;47938;48.176;16.414;2023-02-17T09:37:15;11.70;68.20
61979;DHT22;47938;48.176;16.414;2023-02-17T09:39:41;11.70;68.90
61979;DHT22;47938;48.176;16.414;2023-02-17T09:42:18;11.80;69.90
61979;DHT22;47938;48.176;16.414;2023-02-17T09:44:49;11.90;70.40
61979;DHT22;47938;48.176;16.414;2023-02-17T09:47:31;12.00;71.10
61979;DHT22;47938;48.176;16.414;2023-02-17T09:50:05;12.10;71.60
61979;DHT22;47938;48.176;16.414;2023-02-17T09:52:41;12.20;72.70
61979;DHT22;47938;48.176;16.414;2023-02-17T09:55:19;12.20;73.80
61979;DHT22;47938;48.176;16.414;2023-02-17T09:57:57;12.20;73.20
61979;DHT22;47938;48.176;16.414;2023-02-17T10:05:55;12.00;80.20
61979;DHT22;47938;48.176;16.414;2023-02-17T10:08:27;11.90;82.60
61979;DHT22;47938;48.176;16.414;2023-02-17T10:13:49;12.00;78.10
61979;DHT22;47938;48.176;16.414;2023-02-17T10:16:22;12.00;75.80
61979;DHT22;47938;48.176;16.414;2023-02-17T10:19:14;12.10;75.40
61979;DHT22;47938;48.176;16.414;2023-02-17T10:21:56;12.10;73.60
61979;DHT22;47938;48.176;16.414;2023-02-17T10:24:22;12.10;72.30
61979;DHT22;47938;48.176;16.414;2023-02-17T10:32:26;12.00;74.60
61979;DHT22;47938;48.176;16.414;2023-02-17T10:35:12;12.00;73.50
61979;DHT22;47938;48.176;16.414;2023-02-17T10:37:45;12.00;73.30
61979;DHT22;47938;48.176;16.414;2023-02-17T10:40:21;12.10;73.00
61979;DHT22;47938;48.176;16.414;2023-02-17T10:42:51;12.10;70.40
61979;DHT22;47938;48.176;16.414;2023-02-17T10:45:35;12.20;68.40
61979;DHT22;47938;48.176;16.414;2023-02-17T10:48:20;12.30;68.10
61979;DHT22;47938;48.176;16.414;2023-02-17T10:50:46;12.30;66.70
61979;DHT22;47938;48.176;16.414;2023-02-17T10:53:21;12.30;67.10
61979;DHT22;47938;48.176;16.414;2023-02-17T10:56:05;12.30;66.20
61979;DHT22;47938;48.176;16.414;2023-02-17T10:58:58;12.30;64.80
61979;DHT22;47938;48.176;16.414;2023-02-17T11:01:22;12.30;64.60
61979;DHT22;47938;48.176;16.414;2023-02-17T11:04:01;12.40;63.90
61979;DHT22;47938;48.176;16.414;2023-02-17T11:06:28;12.30;63.60
61979;DHT22;47938;48.176;16.414;2023-02-17T11:09:04;12.50;62.90
61979;DHT22;47938;48.176;16.414;2023-02-17T11:11:33;12.50;62.20
61979;DHT22;47938;48.176;16.414;2023-02-17T11:19:00;12.50;62.50
61979;DHT22;47938;48.176;16.414;2023-02-17T11:21:27;12.60;62.10
61979;DHT22;47938;48.176;16.414;2023-02-17T11:23:58;12.70;62.00
61979;DHT22;47938;48.176;16.414;2023-02-17T11:26:27;12.70;61.40
61979;DHT22;47938;48.176;16.414;2023-02-17T11:28:53;12.80;63.80
61979;DHT22;47938;48.176;16.414;2023-02-17T11:31:30;12.90;62.10
61979;DHT22;47938;48.176;16.414;2023-02-17T11:33:56;12.90;62.70
61979;DHT22;47938;48.176;16.414;2023-02-17T11:36:27;13.00;60.10
61979;DHT22;47938;48.176;16.414;2023-02-17T11:38:53;13.00;59.60
61979;DHT22;47938;48.176;16.414;2023-02-17T11:41:19;13.00;59.80
61979;DHT22;47938;48.176;16.414;2023-02-17T11:43:56;13.10;59.00
61979;DHT22;47938;48.176;16.414;2023-02-17T11:46:51;13.10;58.50
61979;DHT22;47938;48.176;16.414;2023-02-17T11:52:04;13.00;58.90
61979;DHT22;47938;48.176;16.414;2023-02-17T11:57:41;13.10;59.00
61979;DHT22;47938;48.176;16.414;2023-02-17T12:00:13;13.20;59.10
61979;DHT22;47938;48.176;16.414;2023-02-17T12:08:44;13.30;59.00
61979;DHT22;47938;48.176;16.414;2023-02-17T12:16:32;13.40;59.70
61979;DHT22;47938;48.176;16.414;2023-02-17T12:22:02;13.30;60.60
61979;DHT22;47938;48.176;16.414;2023-02-17T12:35:36;13.40;61.00
61979;DHT22;47938;48.176;16.414;2023-02-17T12:38:12;13.40;61.40
61979;DHT22;47938;48.176;16.414;2023-02-17T12:41:02;13.40;61.10
61979;DHT22;47938;48.176;16.414;2023-02-17T12:43:49;13.30;61.80
61979;DHT22;47938;48.176;16.414;2023-02-17T12:46:23;13.20;62.00
61979;DHT22;47938;48.176;16.414;2023-02-17T12:48:56;13.20;62.70
61979;DHT22;47938;48.176;16.414;2023-02-17T12:51:31;13.10;63.40
61979;DHT22;47938;48.176;16.414;2023-02-17T12:56:58;13.10;63.40
61979;DHT22;47938;48.176;16.414;2023-02-17T13:04:30;13.00;63.80
61979;DHT22;47938;48.176;16.414;2023-02-17T13:09:44;13.00;64.30
61979;DHT22;47938;48.176;16.414;2023-02-17T13:12:30;13.00;64.30
61979;DHT22;47938;48.176;16.414;2023-02-17T13:14:59;12.90;64.50
61979;DHT22;47938;48.176;16.414;2023-02-17T13:22:41;12.90;65.40
61979;DHT22;47938;48.176;16.414;2023-02-17T13:25:29;12.90;65.90
61979;DHT22;47938;48.176;16.414;2023-02-17T13:27:56;12.90;66.40
61979;DHT22;47938;48.176;16.414;2023-02-17T13:33:02;12.90;66.60
61979;DHT22;47938;48.176;16.414;2023-02-17T13:35:32;12.90;66.90
61979;DHT22;47938;48.176;16.414;2023-02-17T13:37:58;12.90;67.00
61979;DHT22;47938;48.176;16.414;2023-02-17T13:40:29;12.90;67.30
61979;DHT22;47938;48.176;16.414;2023-02-17T13:42:56;12.90;67.30
61979;DHT22;47938;48.176;16.414;2023-02-17T13:45:40;12.90;67.30
61979;DHT22;47938;48.176;16.414;2023-02-17T13:48:33;12.90;67.20
61979;DHT22;47938;48.176;16.414;2023-02-17T13:51:06;12.80;67.30
61979;DHT22;47938;48.176;16.414;2023-02-17T13:53:38;12.80;67.60
61979;DHT22;47938;48.176;16.414;2023-02-17T13:56:22;12.90;66.90
61979;DHT22;47938;48.176;16.414;2023-02-17T13:58:48;13.00;66.90
61979;DHT22;47938;48.176;16.414;2023-02-17T14:01:17;13.00;66.90
61979;DHT22;47938;48.176;16.414;2023-02-17T14:03:48;13.00;67.00
61979;DHT22;47938;48.176;16.414;2023-02-17T14:06:27;13.00;67.40
61979;DHT22;47938;48.176;16.414;2023-02-17T14:08:54;13.00;67.40
61979;DHT22;47938;48.176;16.414;2023-02-17T14:11:27;13.00;67.40
61979;DHT22;47938;48.176;16.414;2023-02-17T14:13:55;13.00;68.40
61979;DHT22;47938;48.176;16.414;2023-02-17T14:16:26;13.00;67.50
61979;DHT22;47938;48.176;16.414;2023-02-17T14:19:01;13.10;67.40
61979;DHT22;47938;48.176;16.414;2023-02-17T14:21:27;13.00;67.30
61979;DHT22;47938;48.176;16.414;2023-02-17T14:23:55;13.00;67.60
61979;DHT22;47938;48.176;16.414;2023-02-17T14:26:46;13.00;67.50
61979;DHT22;47938;48.176;16.414;2023-02-17T14:29:13;13.10;67.60
61979;DHT22;47938;48.176;16.414;2023-02-17T14:34:10;13.10;66.90
61979;DHT22;47938;48.176;16.414;2023-02-17T14:36:38;13.10;66.10
61979;DHT22;47938;48.176;16.414;2023-02-17T14:39:07;13.10;65.90
61979;DHT22;47938;48.176;16.414;2023-02-17T14:41:33;13.20;65.70
61979;DHT22;47938;48.176;16.414;2023-02-17T14:43:59;13.20;65.20
61979;DHT22;47938;48.176;16.414;2023-02-17T14:46:25;13.20;64.80
61979;DHT22;47938;48.176;16.414;2023-02-17T14:48:51;13.20;64.50
61979;DHT22;47938;48.176;16.414;2023-02-17T14:51:20;13.30;64.70
61979;DHT22;47938;48.176;16.414;2023-02-17T14:53:46;13.30;64.40
61979;DHT22;47938;48.176;16.414;2023-02-17T14:56:32;13.30;65.10
61979;DHT22;47938;48.176;16.414;2023-02-17T14:58:58;13.30;64.10
61979;DHT22;47938;48.176;16.414;2023-02-17T15:01:24;13.40;63.60
61979;DHT22;47938;48.176;16.414;2023-02-17T15:03:51;13.40;63.60
61979;DHT22;47938;48.176;16.414;2023-02-17T15:06:23;13.40;63.20
61979;DHT22;47938;48.176;16.414;2023-02-17T15:08:49;13.50;62.90
61979;DHT22;47938;48.176;16.414;2023-02-17T15:11:19;13.50;62.70
61979;DHT22;47938;48.176;16.414;2023-02-17T15:13:45;13.50;62.50
61979;DHT22;47938;48.176;16.414;2023-02-17T15:16:11;13.50;62.10
61979;DHT22;47938;48.176;16.414;2023-02-17T15:18:37;13.50;62.20
61979;DHT22;47938;48.176;16.414;2023-02-17T15:21:16;13.60;61.60
61979;DHT22;47938;48.176;16.414;2023-02-17T15:23:44;13.60;61.60
61979;DHT22;47938;48.176;16.414;2023-02-17T15:26:09;13.60;61.10
61979;DHT22;47938;48.176;16.414;2023-02-17T15:28:35;13.60;61.00
61979;DHT22;47938;48.176;16.414;2023-02-17T15:31:01;13.60;60.60
61979;DHT22;47938;48.176;16.414;2023-02-17T15:33:27;13.70;60.70
61979;DHT22;47938;48.176;16.414;2023-02-17T15:35:53;13.70;60.40
61979;DHT22;47938;48.176;16.414;2023-02-17T15:38:20;13.80;60.30
61979;DHT22;47938;48.176;16.414;2023-02-17T15:40:45;13.70;60.60
61979;DHT22;47938;48.176;16.414;2023-02-17T15:43:16;13.70;60.70
61979;DHT22;47938;48.176;16.414;2023-02-17T15:45:43;13.70;61.20
61979;DHT22;47938;48.176;16.414;2023-02-17T15:48:23;13.70;61.30
61979;DHT22;47938;48.176;16.414;2023-02-17T15:50:50;13.70;61.30
61979;DHT22;47938;48.176;16.414;2023-02-17T15:53:16;13.70;61.30
61979;DHT22;47938;48.176;16.414;2023-02-17T15:55:42;13.70;61.30
61979;DHT22;47938;48.176;16.414;2023-02-17T15:58:17;13.70;60.90
61979;DHT22;47938;48.176;16.414;2023-02-17T16:00:43;13.70;60.50
61979;DHT22;47938;48.176;16.414;2023-02-17T16:03:11;13.80;60.30
61979;DHT22;47938;48.176;16.414;2023-02-17T16:05:38;13.80;60.40
61979;DHT22;47938;48.176;16.414;2023-02-17T16:08:04;13.80;60.10
61979;DHT22;47938;48.176;16.414;2023-02-17T16:10:31;13.80;60.00
61979;DHT22;47938;48.176;16.414;2023-02-17T16:12:58;13.80;60.20
61979;DHT22;47938;48.176;16.414;2023-02-17T16:15:25;13.80;60.30
61979;DHT22;47938;48.176;16.414;2023-02-17T16:17:52;13.80;60.50
61979;DHT22;47938;48.176;16.414;2023-02-17T16:20:24;13.80;60.50
61979;DHT22;47938;48.176;16.414;2023-02-17T16:22:50;13.80;60.40
61979;DHT22;47938;48.176;16.414;2023-02-17T16:25:17;13.70;60.40
61979;DHT22;47938;48.176;16.414;2023-02-17T16:27:45;13.80;60.40
61979;DHT22;47938;48.176;16.414;2023-02-17T16:30:21;13.80;60.50
61979;DHT22;47938;48.176;16.414;2023-02-17T16:32:48;13.80;61.20
61979;DHT22;47938;48.176;16.414;2023-02-17T16:35:19;13.80;60.30
61979;DHT22;47938;48.176;16.414;2023-02-17T16:38:07;13.80;60.90
61979;DHT22;47938;48.176;16.414;2023-02-17T16:40:35;13.80;61.80
61979;DHT22;47938;48.176;16.414;2023-02-17T16:43:01;13.80;62.10
61979;DHT22;47938;48.176;16.414;2023-02-17T16:45:30;13.80;62.40
61979;DHT22;47938;48.176;16.414;2023-02-17T16:47:58;13.80;62.00
61979;DHT22;47938;48.176;16.414;2023-02-17T16:50:31;13.80;62.20
61979;DHT22;47938;48.176;16.414;2023-02-17T16:53:04;13.80;62.00
61979;DHT22;47938;48.176;16.414;2023-02-17T16:55:34;13.80;62.10
61979;DHT22;47938;48.176;16.414;2023-02-17T16:58:01;13.80;62.10
61979;DHT22;47938;48.176;16.414;2023-02-17T17:00:30;13.80;62.40
61979;DHT22;47938;48.176;16.414;2023-02-17T17:02:57;13.80;62.40
61979;DHT22;47938;48.176;16.414;2023-02-17T17:05:24;13.80;62.70
61979;DHT22;47938;48.176;16.414;2023-02-17T17:07:50;13.70;63.10
61979;DHT22;47938;48.176;16.414;2023-02-17T17:10:21;13.70;63.10
61979;DHT22;47938;48.176;16.414;2023-02-17T17:12:47;13.80;63.20
61979;DHT22;47938;48.176;16.414;2023-02-17T17:15:13;13.70;63.40